sensor_id;sensor_type;location;lat;lon;timestamp;P1;durP1;ratioP1;P2;durP2;ratioP2
8859;SDS011;4466;50.948;4.832;2024-01-30T00:01:38;6.03;;;4.60;;
8859;SDS011;4466;50.948;4.832;2024-01-30T00:04:04;6.07;;;4.70;;
8859;SDS011;4466;50.948;4.832;2024-01-30T00:06:29;5.87;;;4.70;;
8859;SDS011;4466;50.948;4.832;2024-01-30T00:08:56;6.60;;;5.03;;
8859;SDS011;4466;50.948;4.832;2024-01-30T00:11:22;7.90;;;5.33;;
8859;SDS011;4466;50.948;4.832;2024-01-30T00:13:50;7.70;;;4.53;;
8859;SDS011;4466;50.948;4.832;2024-01-30T00:16:23;7.50;;;4.63;;
8859;SDS011;4466;50.948;4.832;2024-01-30T00:18:52;7.13;;;4.57;;
8859;SDS011;4466;50.948;4.832;2024-01-30T00:21:19;6.63;;;4.90;;
8859;SDS011;4466;50.948;4.832;2024-01-30T00:23:45;6.37;;;4.73;;
8859;SDS011;4466;50.948;4.832;2024-01-30T00:26:11;6.50;;;4.90;;
8859;SDS011;4466;50.948;4.832;2024-01-30T00:28:38;5.80;;;4.30;;
8859;SDS011;4466;50.948;4.832;2024-01-30T00:31:04;6.13;;;4.70;;
8859;SDS011;4466;50.948;4.832;2024-01-30T00:33:29;6.47;;;4.43;;
8859;SDS011;4466;50.948;4.832;2024-01-30T00:35:56;6.57;;;4.83;;
8859;SDS011;4466;50.948;4.832;2024-01-30T00:38:22;5.80;;;4.13;;
8859;SDS011;4466;50.948;4.832;2024-01-30T00:40:48;5.83;;;4.20;;
8859;SDS011;4466;50.948;4.832;2024-01-30T00:43:14;7.37;;;4.50;;
8859;SDS011;4466;50.948;4.832;2024-01-30T00:45:40;5.27;;;4.10;;
8859;SDS011;4466;50.948;4.832;2024-01-30T00:48:06;6.63;;;4.37;;
8859;SDS011;4466;50.948;4.832;2024-01-30T00:50:32;5.90;;;4.30;;
8859;SDS011;4466;50.948;4.832;2024-01-30T00:52:57;6.17;;;3.97;;
8859;SDS011;4466;50.948;4.832;2024-01-30T00:55:23;5.00;;;3.70;;
8859;SDS011;4466;50.948;4.832;2024-01-30T00:57:49;5.77;;;3.60;;
8859;SDS011;4466;50.948;4.832;2024-01-30T01:00:15;4.93;;;4.27;;
8859;SDS011;4466;50.948;4.832;2024-01-30T01:02:42;5.47;;;3.90;;
8859;SDS011;4466;50.948;4.832;2024-01-30T01:05:08;8.07;;;4.10;;
8859;SDS011;4466;50.948;4.832;2024-01-30T01:07:34;6.53;;;4.33;;
8859;SDS011;4466;50.948;4.832;2024-01-30T01:10:01;5.00;;;3.83;;
8859;SDS011;4466;50.948;4.832;2024-01-30T01:12:27;5.83;;;3.90;;
8859;SDS011;4466;50.948;4.832;2024-01-30T01:14:53;4.80;;;4.20;;
8859;SDS011;4466;50.948;4.832;2024-01-30T01:17:18;4.83;;;3.83;;
8859;SDS011;4466;50.948;4.832;2024-01-30T01:19:44;5.97;;;4.10;;
8859;SDS011;4466;50.948;4.832;2024-01-30T01:22:10;4.80;;;3.70;;
8859;SDS011;4466;50.948;4.832;2024-01-30T01:24:36;6.03;;;4.00;;
8859;SDS011;4466;50.948;4.832;2024-01-30T01:27:02;5.73;;;4.40;;
8859;SDS011;4466;50.948;4.832;2024-01-30T01:29:28;5.63;;;4.00;;
8859;SDS011;4466;50.948;4.832;2024-01-30T01:31:54;6.50;;;4.20;;
8859;SDS011;4466;50.948;4.832;2024-01-30T01:34:21;7.33;;;3.80;;
8859;SDS011;4466;50.948;4.832;2024-01-30T01:36:47;5.47;;;3.80;;
8859;SDS011;4466;50.948;4.832;2024-01-30T01:39:13;6.23;;;3.83;;
8859;SDS011;4466;50.948;4.832;2024-01-30T01:41:39;5.17;;;3.90;;
8859;SDS011;4466;50.948;4.832;2024-01-30T01:44:05;5.37;;;4.17;;
8859;SDS011;4466;50.948;4.832;2024-01-30T01:46:32;7.20;;;4.20;;
8859;SDS011;4466;50.948;4.832;2024-01-30T01:48:59;5.80;;;4.10;;
8859;SDS011;4466;50.948;4.832;2024-01-30T01:51:27;5.83;;;3.80;;
8859;SDS011;4466;50.948;4.832;2024-01-30T01:53:55;6.50;;;4.20;;
8859;SDS011;4466;50.948;4.832;2024-01-30T01:56:25;5.93;;;4.20;;
8859;SDS011;4466;50.948;4.832;2024-01-30T01:58:54;7.60;;;3.80;;
8859;SDS011;4466;50.948;4.832;2024-01-30T02:01:20;5.57;;;4.17;;
8859;SDS011;4466;50.948;4.832;2024-01-30T02:03:48;6.50;;;3.97;;
8859;SDS011;4466;50.948;4.832;2024-01-30T02:06:14;4.90;;;3.80;;
8859;SDS011;4466;50.948;4.832;2024-01-30T02:08:41;5.90;;;3.87;;
8859;SDS011;4466;50.948;4.832;2024-01-30T02:11:07;4.93;;;3.77;;
8859;SDS011;4466;50.948;4.832;2024-01-30T02:13:35;6.40;;;4.03;;
8859;SDS011;4466;50.948;4.832;2024-01-30T02:16:03;5.73;;;3.90;;
8859;SDS011;4466;50.948;4.832;2024-01-30T02:18:29;6.17;;;3.77;;
8859;SDS011;4466;50.948;4.832;2024-01-30T02:20:56;6.13;;;3.67;;
8859;SDS011;4466;50.948;4.832;2024-01-30T02:23:26;4.83;;;3.83;;
8859;SDS011;4466;50.948;4.832;2024-01-30T02:25:52;5.97;;;4.13;;
8859;SDS011;4466;50.948;4.832;2024-01-30T02:28:18;6.10;;;3.87;;
8859;SDS011;4466;50.948;4.832;2024-01-30T02:30:45;6.27;;;3.60;;
8859;SDS011;4466;50.948;4.832;2024-01-30T02:33:12;4.63;;;3.60;;
8859;SDS011;4466;50.948;4.832;2024-01-30T02:35:39;5.10;;;3.90;;
8859;SDS011;4466;50.948;4.832;2024-01-30T02:38:08;4.87;;;3.53;;
8859;SDS011;4466;50.948;4.832;2024-01-30T02:40:33;6.30;;;3.67;;
8859;SDS011;4466;50.948;4.832;2024-01-30T02:42:59;5.67;;;4.37;;
8859;SDS011;4466;50.948;4.832;2024-01-30T02:45:26;5.03;;;3.80;;
8859;SDS011;4466;50.948;4.832;2024-01-30T02:47:52;4.93;;;4.00;;
8859;SDS011;4466;50.948;4.832;2024-01-30T02:50:17;7.00;;;3.70;;
8859;SDS011;4466;50.948;4.832;2024-01-30T02:52:43;8.03;;;4.50;;
8859;SDS011;4466;50.948;4.832;2024-01-30T02:55:09;6.57;;;3.77;;
8859;SDS011;4466;50.948;4.832;2024-01-30T02:57:35;6.60;;;4.30;;
8859;SDS011;4466;50.948;4.832;2024-01-30T03:00:01;6.10;;;4.30;;
8859;SDS011;4466;50.948;4.832;2024-01-30T03:02:29;5.37;;;3.67;;
8859;SDS011;4466;50.948;4.832;2024-01-30T03:04:54;6.23;;;4.03;;
8859;SDS011;4466;50.948;4.832;2024-01-30T03:07:20;6.43;;;4.03;;
8859;SDS011;4466;50.948;4.832;2024-01-30T03:09:47;6.87;;;4.30;;
8859;SDS011;4466;50.948;4.832;2024-01-30T03:12:13;7.13;;;4.33;;
8859;SDS011;4466;50.948;4.832;2024-01-30T03:14:39;6.90;;;4.20;;
8859;SDS011;4466;50.948;4.832;2024-01-30T03:17:04;6.17;;;4.30;;
8859;SDS011;4466;50.948;4.832;2024-01-30T03:19:30;9.10;;;4.20;;
8859;SDS011;4466;50.948;4.832;2024-01-30T03:21:55;6.00;;;4.77;;
8859;SDS011;4466;50.948;4.832;2024-01-30T03:24:21;6.07;;;4.00;;
8859;SDS011;4466;50.948;4.832;2024-01-30T03:26:47;6.40;;;4.07;;
8859;SDS011;4466;50.948;4.832;2024-01-30T03:29:12;6.53;;;4.10;;
8859;SDS011;4466;50.948;4.832;2024-01-30T03:31:39;7.20;;;4.00;;
8859;SDS011;4466;50.948;4.832;2024-01-30T03:34:04;4.97;;;3.70;;
8859;SDS011;4466;50.948;4.832;2024-01-30T03:36:30;5.50;;;3.90;;
8859;SDS011;4466;50.948;4.832;2024-01-30T03:38:58;6.37;;;3.93;;
8859;SDS011;4466;50.948;4.832;2024-01-30T03:41:23;6.47;;;3.87;;
8859;SDS011;4466;50.948;4.832;2024-01-30T03:43:49;5.67;;;4.17;;
8859;SDS011;4466;50.948;4.832;2024-01-30T03:46:15;5.67;;;4.00;;
8859;SDS011;4466;50.948;4.832;2024-01-30T03:48:41;8.47;;;3.83;;
8859;SDS011;4466;50.948;4.832;2024-01-30T03:51:07;4.60;;;3.73;;
8859;SDS011;4466;50.948;4.832;2024-01-30T03:53:33;5.70;;;3.80;;
8859;SDS011;4466;50.948;4.832;2024-01-30T03:55:59;5.23;;;3.77;;
8859;SDS011;4466;50.948;4.832;2024-01-30T03:58:24;6.23;;;3.80;;
8859;SDS011;4466;50.948;4.832;2024-01-30T04:00:50;6.03;;;3.60;;
8859;SDS011;4466;50.948;4.832;2024-01-30T04:03:16;4.73;;;3.60;;
8859;SDS011;4466;50.948;4.832;2024-01-30T04:05:42;7.10;;;3.77;;
8859;SDS011;4466;50.948;4.832;2024-01-30T04:08:08;5.63;;;3.77;;
8859;SDS011;4466;50.948;4.832;2024-01-30T04:10:34;5.57;;;3.63;;
8859;SDS011;4466;50.948;4.832;2024-01-30T04:12:59;5.60;;;3.43;;
8859;SDS011;4466;50.948;4.832;2024-01-30T04:15:26;7.17;;;3.90;;
8859;SDS011;4466;50.948;4.832;2024-01-30T04:17:52;6.43;;;3.43;;
8859;SDS011;4466;50.948;4.832;2024-01-30T04:20:17;5.10;;;3.67;;
8859;SDS011;4466;50.948;4.832;2024-01-30T04:22:44;5.50;;;3.80;;
8859;SDS011;4466;50.948;4.832;2024-01-30T04:25:10;4.53;;;3.33;;
8859;SDS011;4466;50.948;4.832;2024-01-30T04:27:37;5.53;;;3.87;;
8859;SDS011;4466;50.948;4.832;2024-01-30T04:30:02;6.37;;;3.90;;
8859;SDS011;4466;50.948;4.832;2024-01-30T04:32:29;5.53;;;3.80;;
8859;SDS011;4466;50.948;4.832;2024-01-30T04:34:54;5.27;;;3.70;;
8859;SDS011;4466;50.948;4.832;2024-01-30T04:37:20;5.37;;;3.53;;
8859;SDS011;4466;50.948;4.832;2024-01-30T04:39:46;7.67;;;4.10;;
8859;SDS011;4466;50.948;4.832;2024-01-30T04:42:11;5.17;;;3.43;;
8859;SDS011;4466;50.948;4.832;2024-01-30T04:44:37;5.50;;;3.57;;
8859;SDS011;4466;50.948;4.832;2024-01-30T04:47:02;4.80;;;3.47;;
8859;SDS011;4466;50.948;4.832;2024-01-30T04:49:30;6.20;;;4.27;;
8859;SDS011;4466;50.948;4.832;2024-01-30T04:51:55;5.43;;;4.30;;
8859;SDS011;4466;50.948;4.832;2024-01-30T04:54:21;4.63;;;3.47;;
8859;SDS011;4466;50.948;4.832;2024-01-30T04:56:47;8.23;;;3.90;;
8859;SDS011;4466;50.948;4.832;2024-01-30T04:59:13;5.90;;;3.70;;
8859;SDS011;4466;50.948;4.832;2024-01-30T05:01:38;5.83;;;3.87;;
8859;SDS011;4466;50.948;4.832;2024-01-30T05:04:04;4.03;;;3.53;;
8859;SDS011;4466;50.948;4.832;2024-01-30T05:06:32;8.47;;;3.80;;
8859;SDS011;4466;50.948;4.832;2024-01-30T05:08:58;6.90;;;3.70;;
8859;SDS011;4466;50.948;4.832;2024-01-30T05:11:24;6.00;;;3.40;;
8859;SDS011;4466;50.948;4.832;2024-01-30T05:13:49;5.37;;;3.60;;
8859;SDS011;4466;50.948;4.832;2024-01-30T05:16:15;6.00;;;3.23;;
8859;SDS011;4466;50.948;4.832;2024-01-30T05:18:40;7.37;;;3.40;;
8859;SDS011;4466;50.948;4.832;2024-01-30T05:21:06;4.87;;;3.30;;
8859;SDS011;4466;50.948;4.832;2024-01-30T05:23:32;6.27;;;3.70;;
8859;SDS011;4466;50.948;4.832;2024-01-30T05:25:57;5.83;;;3.67;;
8859;SDS011;4466;50.948;4.832;2024-01-30T05:28:25;7.57;;;4.03;;
8859;SDS011;4466;50.948;4.832;2024-01-30T05:30:51;7.67;;;3.80;;
8859;SDS011;4466;50.948;4.832;2024-01-30T05:33:17;4.20;;;3.60;;
8859;SDS011;4466;50.948;4.832;2024-01-30T05:35:42;7.30;;;3.63;;
8859;SDS011;4466;50.948;4.832;2024-01-30T05:38:08;5.07;;;3.60;;
8859;SDS011;4466;50.948;4.832;2024-01-30T05:40:34;6.47;;;3.70;;
8859;SDS011;4466;50.948;4.832;2024-01-30T05:42:59;8.17;;;4.07;;
8859;SDS011;4466;50.948;4.832;2024-01-30T05:45:26;7.37;;;4.13;;
8859;SDS011;4466;50.948;4.832;2024-01-30T05:47:52;5.27;;;3.30;;
8859;SDS011;4466;50.948;4.832;2024-01-30T05:50:18;6.20;;;3.60;;
8859;SDS011;4466;50.948;4.832;2024-01-30T05:52:44;6.03;;;3.50;;
8859;SDS011;4466;50.948;4.832;2024-01-30T05:55:11;5.17;;;3.73;;
8859;SDS011;4466;50.948;4.832;2024-01-30T05:57:37;5.37;;;3.53;;
8859;SDS011;4466;50.948;4.832;2024-01-30T06:00:03;4.27;;;3.47;;
8859;SDS011;4466;50.948;4.832;2024-01-30T06:02:30;5.90;;;3.73;;
8859;SDS011;4466;50.948;4.832;2024-01-30T06:04:56;5.40;;;3.60;;
8859;SDS011;4466;50.948;4.832;2024-01-30T06:07:22;6.33;;;3.37;;
8859;SDS011;4466;50.948;4.832;2024-01-30T06:09:48;5.30;;;3.43;;
8859;SDS011;4466;50.948;4.832;2024-01-30T06:12:13;4.53;;;3.37;;
8859;SDS011;4466;50.948;4.832;2024-01-30T06:14:39;4.00;;;3.50;;
8859;SDS011;4466;50.948;4.832;2024-01-30T06:17:07;5.60;;;3.77;;
8859;SDS011;4466;50.948;4.832;2024-01-30T06:19:33;4.10;;;3.63;;
8859;SDS011;4466;50.948;4.832;2024-01-30T06:21:59;4.87;;;3.67;;
8859;SDS011;4466;50.948;4.832;2024-01-30T06:24:24;4.13;;;3.47;;
8859;SDS011;4466;50.948;4.832;2024-01-30T06:26:50;4.17;;;3.50;;
8859;SDS011;4466;50.948;4.832;2024-01-30T06:29:16;6.97;;;4.03;;
8859;SDS011;4466;50.948;4.832;2024-01-30T06:31:42;8.00;;;5.10;;
8859;SDS011;4466;50.948;4.832;2024-01-30T06:34:08;6.13;;;4.43;;
8859;SDS011;4466;50.948;4.832;2024-01-30T06:36:37;7.03;;;4.60;;
8859;SDS011;4466;50.948;4.832;2024-01-30T06:39:05;6.30;;;3.87;;
8859;SDS011;4466;50.948;4.832;2024-01-30T06:41:32;6.30;;;4.27;;
8859;SDS011;4466;50.948;4.832;2024-01-30T06:43:57;5.17;;;3.63;;
8859;SDS011;4466;50.948;4.832;2024-01-30T06:46:23;6.43;;;3.83;;
8859;SDS011;4466;50.948;4.832;2024-01-30T06:48:49;4.70;;;3.57;;
8859;SDS011;4466;50.948;4.832;2024-01-30T06:51:14;7.07;;;4.00;;
8859;SDS011;4466;50.948;4.832;2024-01-30T06:53:40;3.90;;;3.33;;
8859;SDS011;4466;50.948;4.832;2024-01-30T06:56:06;4.67;;;3.90;;
8859;SDS011;4466;50.948;4.832;2024-01-30T06:58:31;5.63;;;3.93;;
8859;SDS011;4466;50.948;4.832;2024-01-30T07:00:57;5.33;;;4.00;;
8859;SDS011;4466;50.948;4.832;2024-01-30T07:03:23;6.33;;;4.10;;
8859;SDS011;4466;50.948;4.832;2024-01-30T07:05:49;5.47;;;4.17;;
8859;SDS011;4466;50.948;4.832;2024-01-30T07:08:15;6.20;;;3.87;;
8859;SDS011;4466;50.948;4.832;2024-01-30T07:10:44;5.40;;;4.10;;
8859;SDS011;4466;50.948;4.832;2024-01-30T07:13:10;6.97;;;4.23;;
8859;SDS011;4466;50.948;4.832;2024-01-30T07:15:36;7.40;;;4.00;;
8859;SDS011;4466;50.948;4.832;2024-01-30T07:18:03;7.60;;;4.30;;
8859;SDS011;4466;50.948;4.832;2024-01-30T07:20:29;7.77;;;4.40;;
8859;SDS011;4466;50.948;4.832;2024-01-30T07:22:57;5.00;;;4.07;;
8859;SDS011;4466;50.948;4.832;2024-01-30T07:25:23;5.60;;;3.97;;
8859;SDS011;4466;50.948;4.832;2024-01-30T07:27:51;5.77;;;4.00;;
8859;SDS011;4466;50.948;4.832;2024-01-30T07:30:21;5.20;;;4.20;;
8859;SDS011;4466;50.948;4.832;2024-01-30T07:32:48;8.53;;;4.10;;
8859;SDS011;4466;50.948;4.832;2024-01-30T07:35:14;5.93;;;4.10;;
8859;SDS011;4466;50.948;4.832;2024-01-30T07:37:40;8.07;;;4.60;;
8859;SDS011;4466;50.948;4.832;2024-01-30T07:40:06;7.10;;;4.40;;
8859;SDS011;4466;50.948;4.832;2024-01-30T07:42:32;7.10;;;4.57;;
8859;SDS011;4466;50.948;4.832;2024-01-30T07:44:58;7.87;;;5.60;;
8859;SDS011;4466;50.948;4.832;2024-01-30T07:47:25;7.50;;;4.60;;
8859;SDS011;4466;50.948;4.832;2024-01-30T07:49:50;7.80;;;4.60;;
8859;SDS011;4466;50.948;4.832;2024-01-30T07:52:16;5.43;;;4.53;;
8859;SDS011;4466;50.948;4.832;2024-01-30T07:54:48;6.07;;;4.43;;
8859;SDS011;4466;50.948;4.832;2024-01-30T07:57:14;7.47;;;4.37;;
8859;SDS011;4466;50.948;4.832;2024-01-30T07:59:42;7.37;;;4.17;;
8859;SDS011;4466;50.948;4.832;2024-01-30T08:02:09;5.93;;;4.30;;
8859;SDS011;4466;50.948;4.832;2024-01-30T08:04:35;7.60;;;4.77;;
8859;SDS011;4466;50.948;4.832;2024-01-30T08:07:01;9.67;;;4.73;;
8859;SDS011;4466;50.948;4.832;2024-01-30T08:09:26;13.77;;;5.10;;
8859;SDS011;4466;50.948;4.832;2024-01-30T08:11:52;7.57;;;5.07;;
8859;SDS011;4466;50.948;4.832;2024-01-30T08:14:18;8.20;;;4.50;;
8859;SDS011;4466;50.948;4.832;2024-01-30T08:16:44;7.33;;;4.27;;
8859;SDS011;4466;50.948;4.832;2024-01-30T08:19:13;8.87;;;4.47;;
8859;SDS011;4466;50.948;4.832;2024-01-30T08:21:39;7.00;;;4.20;;
8859;SDS011;4466;50.948;4.832;2024-01-30T08:24:05;8.07;;;4.90;;
8859;SDS011;4466;50.948;4.832;2024-01-30T08:26:32;7.43;;;4.47;;
8859;SDS011;4466;50.948;4.832;2024-01-30T08:28:58;9.33;;;4.67;;
8859;SDS011;4466;50.948;4.832;2024-01-30T08:31:24;6.83;;;4.30;;
8859;SDS011;4466;50.948;4.832;2024-01-30T08:33:50;7.50;;;4.10;;
8859;SDS011;4466;50.948;4.832;2024-01-30T08:36:16;8.03;;;4.20;;
8859;SDS011;4466;50.948;4.832;2024-01-30T08:38:42;7.43;;;4.13;;
8859;SDS011;4466;50.948;4.832;2024-01-30T08:41:08;5.30;;;4.00;;
8859;SDS011;4466;50.948;4.832;2024-01-30T08:43:33;7.87;;;4.37;;
8859;SDS011;4466;50.948;4.832;2024-01-30T08:46:00;9.17;;;4.50;;
8859;SDS011;4466;50.948;4.832;2024-01-30T08:48:26;10.15;;;4.35;;
8859;SDS011;4466;50.948;4.832;2024-01-30T08:50:51;5.97;;;4.23;;
8859;SDS011;4466;50.948;4.832;2024-01-30T08:53:17;8.57;;;4.50;;
8859;SDS011;4466;50.948;4.832;2024-01-30T08:55:43;5.90;;;3.87;;
8859;SDS011;4466;50.948;4.832;2024-01-30T08:58:09;6.43;;;4.10;;
8859;SDS011;4466;50.948;4.832;2024-01-30T09:00:35;8.67;;;4.30;;
8859;SDS011;4466;50.948;4.832;2024-01-30T09:03:01;8.50;;;4.30;;
8859;SDS011;4466;50.948;4.832;2024-01-30T09:05:26;6.47;;;4.13;;
8859;SDS011;4466;50.948;4.832;2024-01-30T09:07:52;7.50;;;4.57;;
8859;SDS011;4466;50.948;4.832;2024-01-30T09:10:18;8.80;;;4.30;;
8859;SDS011;4466;50.948;4.832;2024-01-30T09:12:44;11.70;;;4.73;;
8859;SDS011;4466;50.948;4.832;2024-01-30T09:15:10;10.27;;;4.50;;
8859;SDS011;4466;50.948;4.832;2024-01-30T09:17:35;10.40;;;4.77;;
8859;SDS011;4466;50.948;4.832;2024-01-30T09:20:01;7.67;;;4.70;;
8859;SDS011;4466;50.948;4.832;2024-01-30T09:22:27;11.68;;;4.90;;
8859;SDS011;4466;50.948;4.832;2024-01-30T09:24:52;8.10;;;4.30;;
8859;SDS011;4466;50.948;4.832;2024-01-30T09:27:18;7.93;;;4.60;;
8859;SDS011;4466;50.948;4.832;2024-01-30T09:29:44;6.63;;;4.45;;
8859;SDS011;4466;50.948;4.832;2024-01-30T09:32:09;8.18;;;4.60;;
8859;SDS011;4466;50.948;4.832;2024-01-30T09:34:35;8.20;;;4.25;;
8859;SDS011;4466;50.948;4.832;2024-01-30T09:37:01;8.45;;;4.20;;
8859;SDS011;4466;50.948;4.832;2024-01-30T09:39:27;6.47;;;4.10;;
8859;SDS011;4466;50.948;4.832;2024-01-30T09:41:55;6.80;;;4.25;;
8859;SDS011;4466;50.948;4.832;2024-01-30T09:44:30;6.87;;;4.43;;
8859;SDS011;4466;50.948;4.832;2024-01-30T09:46:56;5.97;;;4.23;;
8859;SDS011;4466;50.948;4.832;2024-01-30T09:49:28;11.75;;;5.22;;
8859;SDS011;4466;50.948;4.832;2024-01-30T09:51:56;6.90;;;4.57;;
8859;SDS011;4466;50.948;4.832;2024-01-30T09:54:22;6.93;;;4.03;;
8859;SDS011;4466;50.948;4.832;2024-01-30T09:56:48;8.13;;;4.70;;
8859;SDS011;4466;50.948;4.832;2024-01-30T09:59:13;7.72;;;4.50;;
8859;SDS011;4466;50.948;4.832;2024-01-30T10:01:40;7.97;;;4.25;;
8859;SDS011;4466;50.948;4.832;2024-01-30T10:04:07;7.65;;;4.65;;
8859;SDS011;4466;50.948;4.832;2024-01-30T10:06:32;6.60;;;4.70;;
8859;SDS011;4466;50.948;4.832;2024-01-30T10:08:59;9.00;;;4.70;;
8859;SDS011;4466;50.948;4.832;2024-01-30T10:11:25;5.53;;;4.03;;
8859;SDS011;4466;50.948;4.832;2024-01-30T10:13:50;8.40;;;4.60;;
8859;SDS011;4466;50.948;4.832;2024-01-30T10:16:16;8.52;;;4.50;;
8859;SDS011;4466;50.948;4.832;2024-01-30T10:18:42;8.45;;;4.35;;
8859;SDS011;4466;50.948;4.832;2024-01-30T10:21:08;7.75;;;4.47;;
8859;SDS011;4466;50.948;4.832;2024-01-30T10:23:35;9.05;;;4.45;;
8859;SDS011;4466;50.948;4.832;2024-01-30T10:26:02;9.98;;;4.60;;
8859;SDS011;4466;50.948;4.832;2024-01-30T10:28:29;8.07;;;4.07;;
8859;SDS011;4466;50.948;4.832;2024-01-30T10:30:59;9.82;;;4.80;;
8859;SDS011;4466;50.948;4.832;2024-01-30T10:33:25;7.80;;;5.03;;
8859;SDS011;4466;50.948;4.832;2024-01-30T10:35:54;6.43;;;4.38;;
8859;SDS011;4466;50.948;4.832;2024-01-30T10:38:30;6.32;;;4.68;;
8859;SDS011;4466;50.948;4.832;2024-01-30T10:40:56;12.35;;;5.53;;
8859;SDS011;4466;50.948;4.832;2024-01-30T10:43:24;8.13;;;4.72;;
8859;SDS011;4466;50.948;4.832;2024-01-30T10:45:56;11.63;;;4.80;;
8859;SDS011;4466;50.948;4.832;2024-01-30T10:48:28;11.50;;;4.97;;
8859;SDS011;4466;50.948;4.832;2024-01-30T10:50:55;8.45;;;4.78;;
8859;SDS011;4466;50.948;4.832;2024-01-30T10:53:24;8.73;;;5.30;;
8859;SDS011;4466;50.948;4.832;2024-01-30T10:55:51;10.80;;;5.60;;
8859;SDS011;4466;50.948;4.832;2024-01-30T10:58:17;9.52;;;5.32;;
8859;SDS011;4466;50.948;4.832;2024-01-30T11:00:43;8.80;;;5.45;;
8859;SDS011;4466;50.948;4.832;2024-01-30T11:03:10;12.73;;;5.47;;
8859;SDS011;4466;50.948;4.832;2024-01-30T11:05:40;9.98;;;5.80;;
8859;SDS011;4466;50.948;4.832;2024-01-30T11:08:12;10.93;;;5.80;;
8859;SDS011;4466;50.948;4.832;2024-01-30T11:10:47;12.35;;;5.60;;
8859;SDS011;4466;50.948;4.832;2024-01-30T11:13:13;9.73;;;5.20;;
8859;SDS011;4466;50.948;4.832;2024-01-30T11:15:40;11.45;;;5.95;;
8859;SDS011;4466;50.948;4.832;2024-01-30T11:18:05;9.77;;;5.25;;
8859;SDS011;4466;50.948;4.832;2024-01-30T11:20:31;11.13;;;5.93;;
8859;SDS011;4466;50.948;4.832;2024-01-30T11:22:57;10.82;;;5.20;;
8859;SDS011;4466;50.948;4.832;2024-01-30T11:25:24;9.57;;;5.23;;
8859;SDS011;4466;50.948;4.832;2024-01-30T11:27:52;9.10;;;4.80;;
8859;SDS011;4466;50.948;4.832;2024-01-30T11:30:27;9.98;;;4.93;;
8859;SDS011;4466;50.948;4.832;2024-01-30T11:33:11;9.27;;;4.55;;
8859;SDS011;4466;50.948;4.832;2024-01-30T11:35:40;8.73;;;4.55;;
8859;SDS011;4466;50.948;4.832;2024-01-30T11:38:07;8.82;;;4.45;;
8859;SDS011;4466;50.948;4.832;2024-01-30T11:40:34;9.93;;;4.30;;
8859;SDS011;4466;50.948;4.832;2024-01-30T11:43:03;10.45;;;4.93;;
8859;SDS011;4466;50.948;4.832;2024-01-30T11:45:30;8.00;;;3.95;;
8859;SDS011;4466;50.948;4.832;2024-01-30T11:47:57;7.65;;;4.30;;
8859;SDS011;4466;50.948;4.832;2024-01-30T11:50:25;5.90;;;3.80;;
8859;SDS011;4466;50.948;4.832;2024-01-30T11:52:51;7.63;;;4.30;;
8859;SDS011;4466;50.948;4.832;2024-01-30T11:55:16;9.35;;;3.92;;
8859;SDS011;4466;50.948;4.832;2024-01-30T11:57:43;7.33;;;3.77;;
8859;SDS011;4466;50.948;4.832;2024-01-30T12:00:16;10.63;;;4.13;;
8859;SDS011;4466;50.948;4.832;2024-01-30T12:02:43;7.63;;;3.53;;
8859;SDS011;4466;50.948;4.832;2024-01-30T12:05:14;5.78;;;2.35;;
8859;SDS011;4466;50.948;4.832;2024-01-30T12:07:39;4.25;;;2.08;;
8859;SDS011;4466;50.948;4.832;2024-01-30T12:10:05;6.27;;;2.20;;
8859;SDS011;4466;50.948;4.832;2024-01-30T12:12:34;8.63;;;2.30;;
8859;SDS011;4466;50.948;4.832;2024-01-30T12:15:00;4.63;;;2.20;;
8859;SDS011;4466;50.948;4.832;2024-01-30T12:17:30;5.63;;;2.17;;
8859;SDS011;4466;50.948;4.832;2024-01-30T12:22:36;6.53;;;1.93;;
8859;SDS011;4466;50.948;4.832;2024-01-30T12:25:09;4.57;;;1.37;;
8859;SDS011;4466;50.948;4.832;2024-01-30T12:27:40;5.03;;;1.37;;
8859;SDS011;4466;50.948;4.832;2024-01-30T12:30:14;5.03;;;2.00;;
8859;SDS011;4466;50.948;4.832;2024-01-30T12:32:46;3.17;;;1.30;;
8859;SDS011;4466;50.948;4.832;2024-01-30T12:35:14;6.80;;;1.50;;
8859;SDS011;4466;50.948;4.832;2024-01-30T12:37:42;4.43;;;1.67;;
8859;SDS011;4466;50.948;4.832;2024-01-30T12:40:09;2.53;;;1.30;;
8859;SDS011;4466;50.948;4.832;2024-01-30T12:42:38;2.72;;;1.15;;
8859;SDS011;4466;50.948;4.832;2024-01-30T12:45:04;2.33;;;0.90;;
8859;SDS011;4466;50.948;4.832;2024-01-30T12:47:30;1.77;;;0.80;;
8859;SDS011;4466;50.948;4.832;2024-01-30T12:49:56;2.57;;;0.70;;
8859;SDS011;4466;50.948;4.832;2024-01-30T12:52:22;1.77;;;0.63;;
8859;SDS011;4466;50.948;4.832;2024-01-30T12:54:48;1.98;;;0.75;;
8859;SDS011;4466;50.948;4.832;2024-01-30T12:57:14;1.95;;;0.70;;
8859;SDS011;4466;50.948;4.832;2024-01-30T12:59:41;2.30;;;0.70;;
8859;SDS011;4466;50.948;4.832;2024-01-30T13:02:07;1.67;;;0.60;;
8859;SDS011;4466;50.948;4.832;2024-01-30T13:04:33;1.88;;;0.50;;
8859;SDS011;4466;50.948;4.832;2024-01-30T13:06:59;1.85;;;0.57;;
8859;SDS011;4466;50.948;4.832;2024-01-30T13:09:25;1.90;;;0.70;;
8859;SDS011;4466;50.948;4.832;2024-01-30T13:11:51;2.50;;;0.73;;
8859;SDS011;4466;50.948;4.832;2024-01-30T13:14:17;1.87;;;0.53;;
8859;SDS011;4466;50.948;4.832;2024-01-30T13:16:44;2.53;;;0.80;;
8859;SDS011;4466;50.948;4.832;2024-01-30T13:19:09;4.03;;;0.80;;
8859;SDS011;4466;50.948;4.832;2024-01-30T13:21:35;3.53;;;0.88;;
8859;SDS011;4466;50.948;4.832;2024-01-30T13:24:01;4.10;;;1.10;;
8859;SDS011;4466;50.948;4.832;2024-01-30T13:26:26;2.40;;;0.70;;
8859;SDS011;4466;50.948;4.832;2024-01-30T13:28:52;2.55;;;0.70;;
8859;SDS011;4466;50.948;4.832;2024-01-30T13:31:18;4.43;;;0.80;;
8859;SDS011;4466;50.948;4.832;2024-01-30T13:33:44;2.67;;;0.67;;
8859;SDS011;4466;50.948;4.832;2024-01-30T13:36:10;2.07;;;0.80;;
8859;SDS011;4466;50.948;4.832;2024-01-30T13:38:36;2.97;;;0.77;;
8859;SDS011;4466;50.948;4.832;2024-01-30T13:41:02;3.63;;;0.93;;
8859;SDS011;4466;50.948;4.832;2024-01-30T13:43:28;2.37;;;0.77;;
8859;SDS011;4466;50.948;4.832;2024-01-30T13:45:54;3.07;;;1.00;;
8859;SDS011;4466;50.948;4.832;2024-01-30T13:48:20;4.30;;;1.40;;
8859;SDS011;4466;50.948;4.832;2024-01-30T13:50:46;4.87;;;1.50;;
8859;SDS011;4466;50.948;4.832;2024-01-30T13:53:12;5.90;;;1.55;;
8859;SDS011;4466;50.948;4.832;2024-01-30T13:55:38;6.30;;;1.57;;
8859;SDS011;4466;50.948;4.832;2024-01-30T13:58:04;2.43;;;0.90;;
8859;SDS011;4466;50.948;4.832;2024-01-30T14:00:30;5.90;;;1.60;;
8859;SDS011;4466;50.948;4.832;2024-01-30T14:02:56;3.30;;;0.80;;
8859;SDS011;4466;50.948;4.832;2024-01-30T14:05:23;5.37;;;1.10;;
8859;SDS011;4466;50.948;4.832;2024-01-30T14:07:50;3.77;;;1.17;;
8859;SDS011;4466;50.948;4.832;2024-01-30T14:10:16;3.70;;;1.03;;
8859;SDS011;4466;50.948;4.832;2024-01-30T14:12:42;2.27;;;0.90;;
8859;SDS011;4466;50.948;4.832;2024-01-30T14:15:09;4.40;;;1.20;;
8859;SDS011;4466;50.948;4.832;2024-01-30T14:17:36;5.50;;;1.30;;
8859;SDS011;4466;50.948;4.832;2024-01-30T14:20:05;4.87;;;1.27;;
8859;SDS011;4466;50.948;4.832;2024-01-30T14:22:32;4.63;;;1.33;;
8859;SDS011;4466;50.948;4.832;2024-01-30T14:24:58;4.07;;;1.03;;
8859;SDS011;4466;50.948;4.832;2024-01-30T14:27:25;4.07;;;0.90;;
8859;SDS011;4466;50.948;4.832;2024-01-30T14:29:51;4.47;;;0.93;;
8859;SDS011;4466;50.948;4.832;2024-01-30T14:32:16;4.47;;;1.00;;
8859;SDS011;4466;50.948;4.832;2024-01-30T14:34:42;2.97;;;1.20;;
8859;SDS011;4466;50.948;4.832;2024-01-30T14:37:08;4.93;;;1.07;;
8859;SDS011;4466;50.948;4.832;2024-01-30T14:39:33;3.50;;;1.10;;
8859;SDS011;4466;50.948;4.832;2024-01-30T14:42:02;3.00;;;1.27;;
8859;SDS011;4466;50.948;4.832;2024-01-30T14:44:28;6.67;;;1.10;;
8859;SDS011;4466;50.948;4.832;2024-01-30T14:46:55;5.90;;;1.43;;
8859;SDS011;4466;50.948;4.832;2024-01-30T14:49:21;3.20;;;1.00;;
8859;SDS011;4466;50.948;4.832;2024-01-30T14:51:47;3.10;;;0.87;;
8859;SDS011;4466;50.948;4.832;2024-01-30T14:54:12;5.17;;;1.10;;
8859;SDS011;4466;50.948;4.832;2024-01-30T14:56:38;3.93;;;1.10;;
8859;SDS011;4466;50.948;4.832;2024-01-30T14:59:04;2.67;;;0.80;;
8859;SDS011;4466;50.948;4.832;2024-01-30T15:01:30;6.13;;;1.60;;
8859;SDS011;4466;50.948;4.832;2024-01-30T15:03:55;4.53;;;1.10;;
8859;SDS011;4466;50.948;4.832;2024-01-30T15:06:21;6.90;;;1.03;;
8859;SDS011;4466;50.948;4.832;2024-01-30T15:08:49;2.80;;;1.00;;
8859;SDS011;4466;50.948;4.832;2024-01-30T15:11:15;3.50;;;0.90;;
8859;SDS011;4466;50.948;4.832;2024-01-30T15:13:41;4.83;;;1.00;;